Terminal Aerodrome Forecast
Issued by NWS

Home | Current Version | Previous Version | Text Only | Print | Product List | Glossary Off
Versions: 1 2 3 4 5 6 7 8 9 10 11 12 13 14 15 16 17 18 19 20

000
FTUS43 KICT 242325
TAFRSL
TAF
KRSL 242325Z 2500/2524 05012KT P6SM SCT120 BKN200
     FM250600 05009KT P6SM VCTS SCT080CB BKN200
     FM251200 06009KT P6SM BKN150
     FM252100 12009KT P6SM SCT250=

USA.gov is the U.S. government's official web portal to all federal, state and local government web resources and services.